Ras Al Khaimah, United Arab Emirates
Current Conditions -  °F | °C
As of 11:00 PM on Sunday 21 Dec 2014 (Local Time) from OMRK Reporting Station
Clear Clear  
Wind Chill: 57°   Ceiling: Unl
Heat Index: 57°   Visibility: 5mi
Dew Point: 52°   Wind: 3mph
Humidity: 82%   Direction: 200°SSW
Pressure: 30"   Gusts: NA
Location:  25.78°N, 55.94°E
Report Text: OMRK 211900Z 20003KT 8000 NSC 14/11 Q1016 A3001
Loading
Personal Weather Stations






























Interactive Weather Map New forecast layout! Learn more

10-Day Weather Forecast

Advertisements
Track Severe Weather on mobile